sensor_id;sensor_type;location;lat;lon;timestamp;P1;durP1;ratioP1;P2;durP2;ratioP2
45490;SDS011;31237;45.586;13.782;2023-07-29T00:01:43;5.15;;;4.65;;
45490;SDS011;31237;45.586;13.782;2023-07-29T00:04:09;5.70;;;4.60;;
45490;SDS011;31237;45.586;13.782;2023-07-29T00:06:37;5.10;;;4.30;;
45490;SDS011;31237;45.586;13.782;2023-07-29T00:09:02;5.22;;;4.72;;
45490;SDS011;31237;45.586;13.782;2023-07-29T00:11:28;5.30;;;4.78;;
45490;SDS011;31237;45.586;13.782;2023-07-29T00:13:54;6.65;;;4.13;;
45490;SDS011;31237;45.586;13.782;2023-07-29T00:16:20;5.78;;;4.43;;
45490;SDS011;31237;45.586;13.782;2023-07-29T00:18:49;5.82;;;4.78;;
45490;SDS011;31237;45.586;13.782;2023-07-29T00:21:14;6.10;;;5.50;;
45490;SDS011;31237;45.586;13.782;2023-07-29T00:23:40;4.82;;;4.32;;
45490;SDS011;31237;45.586;13.782;2023-07-29T00:26:06;7.63;;;4.25;;
45490;SDS011;31237;45.586;13.782;2023-07-29T00:28:31;5.35;;;4.85;;
45490;SDS011;31237;45.586;13.782;2023-07-29T00:30:57;6.43;;;4.30;;
45490;SDS011;31237;45.586;13.782;2023-07-29T00:33:23;5.43;;;4.80;;
45490;SDS011;31237;45.586;13.782;2023-07-29T00:35:48;5.07;;;4.07;;
45490;SDS011;31237;45.586;13.782;2023-07-29T00:38:14;6.55;;;3.75;;
45490;SDS011;31237;45.586;13.782;2023-07-29T00:40:40;5.00;;;4.00;;
45490;SDS011;31237;45.586;13.782;2023-07-29T00:43:05;5.20;;;3.58;;
45490;SDS011;31237;45.586;13.782;2023-07-29T00:45:31;6.53;;;3.67;;
45490;SDS011;31237;45.586;13.782;2023-07-29T00:47:58;4.30;;;3.72;;
45490;SDS011;31237;45.586;13.782;2023-07-29T00:50:24;5.30;;;3.47;;
45490;SDS011;31237;45.586;13.782;2023-07-29T00:52:52;5.65;;;4.63;;
45490;SDS011;31237;45.586;13.782;2023-07-29T00:55:19;7.20;;;5.70;;
45490;SDS011;31237;45.586;13.782;2023-07-29T00:57:45;6.10;;;5.57;;
45490;SDS011;31237;45.586;13.782;2023-07-29T01:00:13;7.65;;;4.88;;
45490;SDS011;31237;45.586;13.782;2023-07-29T01:02:40;5.40;;;4.90;;
45490;SDS011;31237;45.586;13.782;2023-07-29T01:05:07;6.00;;;4.72;;
45490;SDS011;31237;45.586;13.782;2023-07-29T01:07:36;8.35;;;5.25;;
45490;SDS011;31237;45.586;13.782;2023-07-29T01:13:19;5.82;;;5.15;;
45490;SDS011;31237;45.586;13.782;2023-07-29T01:15:55;5.05;;;4.63;;
45490;SDS011;31237;45.586;13.782;2023-07-29T01:18:26;5.40;;;4.90;;
45490;SDS011;31237;45.586;13.782;2023-07-29T01:20:58;5.78;;;5.28;;
45490;SDS011;31237;45.586;13.782;2023-07-29T01:23:31;5.45;;;4.95;;
45490;SDS011;31237;45.586;13.782;2023-07-29T01:25:58;5.30;;;3.33;;
45490;SDS011;31237;45.586;13.782;2023-07-29T01:28:26;6.45;;;4.03;;
45490;SDS011;31237;45.586;13.782;2023-07-29T01:31:02;4.57;;;3.35;;
45490;SDS011;31237;45.586;13.782;2023-07-29T01:33:35;4.80;;;3.70;;
45490;SDS011;31237;45.586;13.782;2023-07-29T01:36:08;4.33;;;3.33;;
45490;SDS011;31237;45.586;13.782;2023-07-29T01:38:41;5.50;;;3.87;;
45490;SDS011;31237;45.586;13.782;2023-07-29T01:41:08;7.93;;;3.50;;
45490;SDS011;31237;45.586;13.782;2023-07-29T01:43:35;4.90;;;3.42;;
45490;SDS011;31237;45.586;13.782;2023-07-29T01:46:12;4.07;;;3.20;;
45490;SDS011;31237;45.586;13.782;2023-07-29T01:48:38;5.38;;;3.55;;
45490;SDS011;31237;45.586;13.782;2023-07-29T01:51:05;6.32;;;4.18;;
45490;SDS011;31237;45.586;13.782;2023-07-29T01:53:31;5.97;;;4.20;;
45490;SDS011;31237;45.586;13.782;2023-07-29T01:55:57;5.30;;;3.83;;
45490;SDS011;31237;45.586;13.782;2023-07-29T01:58:32;4.88;;;3.67;;
45490;SDS011;31237;45.586;13.782;2023-07-29T02:00:58;4.68;;;3.40;;
45490;SDS011;31237;45.586;13.782;2023-07-29T02:03:24;4.60;;;3.10;;
45490;SDS011;31237;45.586;13.782;2023-07-29T02:05:50;5.05;;;3.67;;
45490;SDS011;31237;45.586;13.782;2023-07-29T02:08:15;4.95;;;3.63;;
45490;SDS011;31237;45.586;13.782;2023-07-29T02:10:41;5.70;;;4.18;;
45490;SDS011;31237;45.586;13.782;2023-07-29T02:13:10;6.82;;;5.75;;
45490;SDS011;31237;45.586;13.782;2023-07-29T02:15:35;6.72;;;5.80;;
45490;SDS011;31237;45.586;13.782;2023-07-29T02:18:01;6.25;;;5.15;;
45490;SDS011;31237;45.586;13.782;2023-07-29T02:20:28;6.25;;;5.10;;
45490;SDS011;31237;45.586;13.782;2023-07-29T02:22:54;6.03;;;4.93;;
45490;SDS011;31237;45.586;13.782;2023-07-29T02:25:20;9.98;;;4.57;;
45490;SDS011;31237;45.586;13.782;2023-07-29T02:27:45;5.18;;;4.47;;
45490;SDS011;31237;45.586;13.782;2023-07-29T02:30:11;6.43;;;4.45;;
45490;SDS011;31237;45.586;13.782;2023-07-29T02:32:37;6.20;;;5.00;;
45490;SDS011;31237;45.586;13.782;2023-07-29T02:35:03;7.78;;;6.60;;
45490;SDS011;31237;45.586;13.782;2023-07-29T02:37:29;7.15;;;6.50;;
45490;SDS011;31237;45.586;13.782;2023-07-29T02:39:55;7.93;;;7.32;;
45490;SDS011;31237;45.586;13.782;2023-07-29T02:42:21;8.25;;;7.65;;
45490;SDS011;31237;45.586;13.782;2023-07-29T02:44:47;8.15;;;7.55;;
45490;SDS011;31237;45.586;13.782;2023-07-29T02:47:13;9.18;;;8.38;;
45490;SDS011;31237;45.586;13.782;2023-07-29T02:49:38;9.77;;;8.98;;
45490;SDS011;31237;45.586;13.782;2023-07-29T02:52:04;9.60;;;8.90;;
45490;SDS011;31237;45.586;13.782;2023-07-29T02:54:30;7.68;;;7.07;;
45490;SDS011;31237;45.586;13.782;2023-07-29T02:56:55;6.63;;;6.00;;
45490;SDS011;31237;45.586;13.782;2023-07-29T02:59:21;5.82;;;4.78;;
45490;SDS011;31237;45.586;13.782;2023-07-29T03:01:47;5.43;;;4.90;;
45490;SDS011;31237;45.586;13.782;2023-07-29T03:04:13;5.90;;;5.40;;
45490;SDS011;31237;45.586;13.782;2023-07-29T03:06:38;7.40;;;6.35;;
45490;SDS011;31237;45.586;13.782;2023-07-29T03:09:04;7.30;;;6.57;;
45490;SDS011;31237;45.586;13.782;2023-07-29T03:11:30;6.70;;;6.10;;
45490;SDS011;31237;45.586;13.782;2023-07-29T03:13:56;6.05;;;5.50;;
45490;SDS011;31237;45.586;13.782;2023-07-29T03:16:22;5.50;;;4.82;;
45490;SDS011;31237;45.586;13.782;2023-07-29T03:18:48;6.93;;;4.25;;
45490;SDS011;31237;45.586;13.782;2023-07-29T03:21:14;4.72;;;4.25;;
45490;SDS011;31237;45.586;13.782;2023-07-29T03:23:40;10.02;;;3.90;;
45490;SDS011;31237;45.586;13.782;2023-07-29T03:26:05;6.15;;;3.92;;
45490;SDS011;31237;45.586;13.782;2023-07-29T03:28:38;6.22;;;4.60;;
45490;SDS011;31237;45.586;13.782;2023-07-29T03:31:06;5.05;;;4.55;;
45490;SDS011;31237;45.586;13.782;2023-07-29T03:33:32;4.97;;;4.47;;
45490;SDS011;31237;45.586;13.782;2023-07-29T03:35:58;4.13;;;3.72;;
45490;SDS011;31237;45.586;13.782;2023-07-29T03:38:24;8.07;;;3.90;;
45490;SDS011;31237;45.586;13.782;2023-07-29T03:40:50;6.40;;;5.75;;
45490;SDS011;31237;45.586;13.782;2023-07-29T03:43:16;8.55;;;7.72;;
45490;SDS011;31237;45.586;13.782;2023-07-29T03:45:41;7.18;;;6.68;;
45490;SDS011;31237;45.586;13.782;2023-07-29T03:48:07;8.15;;;7.45;;
45490;SDS011;31237;45.586;13.782;2023-07-29T03:50:34;7.53;;;6.93;;
45490;SDS011;31237;45.586;13.782;2023-07-29T03:53:00;7.53;;;6.93;;
45490;SDS011;31237;45.586;13.782;2023-07-29T03:55:29;7.65;;;6.78;;
45490;SDS011;31237;45.586;13.782;2023-07-29T03:57:59;8.63;;;8.00;;
45490;SDS011;31237;45.586;13.782;2023-07-29T04:00:25;6.50;;;5.90;;
45490;SDS011;31237;45.586;13.782;2023-07-29T04:02:51;6.65;;;4.97;;
45490;SDS011;31237;45.586;13.782;2023-07-29T04:05:17;5.38;;;4.88;;
45490;SDS011;31237;45.586;13.782;2023-07-29T04:07:43;4.88;;;4.38;;
45490;SDS011;31237;45.586;13.782;2023-07-29T04:10:09;5.10;;;3.95;;
45490;SDS011;31237;45.586;13.782;2023-07-29T04:12:35;4.65;;;3.67;;
45490;SDS011;31237;45.586;13.782;2023-07-29T04:15:01;5.57;;;3.90;;
45490;SDS011;31237;45.586;13.782;2023-07-29T04:17:28;5.80;;;3.70;;
45490;SDS011;31237;45.586;13.782;2023-07-29T04:19:53;4.70;;;3.83;;
45490;SDS011;31237;45.586;13.782;2023-07-29T04:22:19;5.63;;;4.20;;
45490;SDS011;31237;45.586;13.782;2023-07-29T04:24:44;3.97;;;3.50;;
45490;SDS011;31237;45.586;13.782;2023-07-29T04:27:11;4.50;;;3.75;;
45490;SDS011;31237;45.586;13.782;2023-07-29T04:29:37;4.75;;;4.00;;
45490;SDS011;31237;45.586;13.782;2023-07-29T04:32:03;5.22;;;4.72;;
45490;SDS011;31237;45.586;13.782;2023-07-29T04:34:29;6.03;;;5.55;;
45490;SDS011;31237;45.586;13.782;2023-07-29T04:36:55;5.25;;;4.63;;
45490;SDS011;31237;45.586;13.782;2023-07-29T04:39:20;5.40;;;4.90;;
45490;SDS011;31237;45.586;13.782;2023-07-29T04:41:46;5.78;;;5.28;;
45490;SDS011;31237;45.586;13.782;2023-07-29T04:44:12;7.03;;;6.43;;
45490;SDS011;31237;45.586;13.782;2023-07-29T04:46:38;7.18;;;6.50;;
45490;SDS011;31237;45.586;13.782;2023-07-29T04:49:03;6.53;;;6.03;;
45490;SDS011;31237;45.586;13.782;2023-07-29T04:51:29;5.40;;;4.88;;
45490;SDS011;31237;45.586;13.782;2023-07-29T04:53:56;4.20;;;3.72;;
45490;SDS011;31237;45.586;13.782;2023-07-29T04:56:23;6.13;;;3.97;;
45490;SDS011;31237;45.586;13.782;2023-07-29T04:58:49;4.18;;;3.53;;
45490;SDS011;31237;45.586;13.782;2023-07-29T05:01:14;4.57;;;4.15;;
45490;SDS011;31237;45.586;13.782;2023-07-29T05:03:40;5.93;;;3.33;;
45490;SDS011;31237;45.586;13.782;2023-07-29T05:06:06;4.43;;;3.15;;
45490;SDS011;31237;45.586;13.782;2023-07-29T05:08:32;5.13;;;4.32;;
45490;SDS011;31237;45.586;13.782;2023-07-29T05:10:57;5.55;;;3.80;;
45490;SDS011;31237;45.586;13.782;2023-07-29T05:13:23;4.53;;;4.10;;
45490;SDS011;31237;45.586;13.782;2023-07-29T05:15:49;5.25;;;4.28;;
45490;SDS011;31237;45.586;13.782;2023-07-29T05:18:15;4.85;;;4.43;;
45490;SDS011;31237;45.586;13.782;2023-07-29T05:20:42;6.20;;;5.60;;
45490;SDS011;31237;45.586;13.782;2023-07-29T05:23:08;12.10;;;11.30;;
45490;SDS011;31237;45.586;13.782;2023-07-29T05:25:33;8.15;;;7.45;;
45490;SDS011;31237;45.586;13.782;2023-07-29T05:28:02;7.25;;;6.60;;
45490;SDS011;31237;45.586;13.782;2023-07-29T05:30:29;6.88;;;6.30;;
45490;SDS011;31237;45.586;13.782;2023-07-29T05:32:59;6.90;;;5.68;;
45490;SDS011;31237;45.586;13.782;2023-07-29T05:35:25;6.03;;;4.88;;
45490;SDS011;31237;45.586;13.782;2023-07-29T05:37:50;5.05;;;4.35;;
45490;SDS011;31237;45.586;13.782;2023-07-29T05:40:16;5.72;;;4.63;;
45490;SDS011;31237;45.586;13.782;2023-07-29T05:42:42;5.55;;;4.88;;
45490;SDS011;31237;45.586;13.782;2023-07-29T05:45:10;7.50;;;6.90;;
45490;SDS011;31237;45.586;13.782;2023-07-29T05:47:36;4.90;;;3.30;;
45490;SDS011;31237;45.586;13.782;2023-07-29T05:50:02;8.00;;;4.05;;
45490;SDS011;31237;45.586;13.782;2023-07-29T05:52:29;4.25;;;3.85;;
45490;SDS011;31237;45.586;13.782;2023-07-29T05:54:55;6.82;;;4.10;;
45490;SDS011;31237;45.586;13.782;2023-07-29T05:57:21;5.65;;;3.70;;
45490;SDS011;31237;45.586;13.782;2023-07-29T05:59:47;6.38;;;4.13;;
45490;SDS011;31237;45.586;13.782;2023-07-29T06:02:13;5.22;;;4.00;;
45490;SDS011;31237;45.586;13.782;2023-07-29T06:04:38;6.43;;;4.75;;
45490;SDS011;31237;45.586;13.782;2023-07-29T06:07:04;5.88;;;5.38;;
45490;SDS011;31237;45.586;13.782;2023-07-29T06:09:30;5.55;;;5.05;;
45490;SDS011;31237;45.586;13.782;2023-07-29T06:11:56;5.57;;;5.18;;
45490;SDS011;31237;45.586;13.782;2023-07-29T06:14:22;5.72;;;4.22;;
45490;SDS011;31237;45.586;13.782;2023-07-29T06:16:47;4.72;;;3.88;;
45490;SDS011;31237;45.586;13.782;2023-07-29T06:19:13;6.25;;;5.35;;
45490;SDS011;31237;45.586;13.782;2023-07-29T06:21:39;5.13;;;4.20;;
45490;SDS011;31237;45.586;13.782;2023-07-29T06:24:04;10.27;;;9.57;;
45490;SDS011;31237;45.586;13.782;2023-07-29T06:26:30;8.57;;;7.78;;
45490;SDS011;31237;45.586;13.782;2023-07-29T06:28:56;5.43;;;4.07;;
45490;SDS011;31237;45.586;13.782;2023-07-29T06:31:22;10.10;;;3.90;;
45490;SDS011;31237;45.586;13.782;2023-07-29T06:33:47;4.72;;;4.20;;
45490;SDS011;31237;45.586;13.782;2023-07-29T06:36:13;11.35;;;10.57;;
45490;SDS011;31237;45.586;13.782;2023-07-29T06:38:39;7.25;;;6.75;;
45490;SDS011;31237;45.586;13.782;2023-07-29T06:41:06;5.43;;;4.93;;
45490;SDS011;31237;45.586;13.782;2023-07-29T06:43:31;5.85;;;3.85;;
45490;SDS011;31237;45.586;13.782;2023-07-29T06:45:57;4.80;;;4.32;;
45490;SDS011;31237;45.586;13.782;2023-07-29T06:48:23;4.25;;;3.10;;
45490;SDS011;31237;45.586;13.782;2023-07-29T06:50:49;5.35;;;4.85;;
45490;SDS011;31237;45.586;13.782;2023-07-29T06:53:20;5.10;;;4.70;;
45490;SDS011;31237;45.586;13.782;2023-07-29T06:55:46;5.03;;;4.53;;
45490;SDS011;31237;45.586;13.782;2023-07-29T06:58:12;6.05;;;5.55;;
45490;SDS011;31237;45.586;13.782;2023-07-29T07:00:37;5.97;;;4.88;;
45490;SDS011;31237;45.586;13.782;2023-07-29T07:03:03;5.50;;;3.15;;
45490;SDS011;31237;45.586;13.782;2023-07-29T07:05:29;4.38;;;3.63;;
45490;SDS011;31237;45.586;13.782;2023-07-29T07:07:54;5.85;;;5.45;;
45490;SDS011;31237;45.586;13.782;2023-07-29T07:10:20;7.20;;;6.70;;
45490;SDS011;31237;45.586;13.782;2023-07-29T07:12:46;4.00;;;3.45;;
45490;SDS011;31237;45.586;13.782;2023-07-29T07:15:11;4.70;;;4.28;;
45490;SDS011;31237;45.586;13.782;2023-07-29T07:17:37;4.20;;;3.60;;
45490;SDS011;31237;45.586;13.782;2023-07-29T07:20:03;6.38;;;5.80;;
45490;SDS011;31237;45.586;13.782;2023-07-29T07:22:30;5.10;;;4.00;;
45490;SDS011;31237;45.586;13.782;2023-07-29T07:24:55;5.20;;;3.47;;
45490;SDS011;31237;45.586;13.782;2023-07-29T07:27:21;4.43;;;3.33;;
45490;SDS011;31237;45.586;13.782;2023-07-29T07:29:46;4.70;;;3.80;;
45490;SDS011;31237;45.586;13.782;2023-07-29T07:32:12;4.78;;;3.78;;
45490;SDS011;31237;45.586;13.782;2023-07-29T07:34:38;5.20;;;3.17;;
45490;SDS011;31237;45.586;13.782;2023-07-29T07:37:03;5.07;;;4.57;;
45490;SDS011;31237;45.586;13.782;2023-07-29T07:39:29;5.28;;;3.78;;
45490;SDS011;31237;45.586;13.782;2023-07-29T07:41:56;5.45;;;4.28;;
45490;SDS011;31237;45.586;13.782;2023-07-29T07:44:21;5.07;;;3.25;;
45490;SDS011;31237;45.586;13.782;2023-07-29T07:46:47;4.38;;;3.42;;
45490;SDS011;31237;45.586;13.782;2023-07-29T07:49:13;5.72;;;5.22;;
45490;SDS011;31237;45.586;13.782;2023-07-29T07:51:39;4.55;;;3.15;;
45490;SDS011;31237;45.586;13.782;2023-07-29T07:54:05;5.63;;;3.13;;
45490;SDS011;31237;45.586;13.782;2023-07-29T07:56:30;6.05;;;3.10;;
45490;SDS011;31237;45.586;13.782;2023-07-29T07:58:56;5.18;;;2.72;;
45490;SDS011;31237;45.586;13.782;2023-07-29T08:01:22;5.80;;;3.00;;
45490;SDS011;31237;45.586;13.782;2023-07-29T08:03:47;4.60;;;3.10;;
45490;SDS011;31237;45.586;13.782;2023-07-29T08:06:13;3.80;;;2.60;;
45490;SDS011;31237;45.586;13.782;2023-07-29T08:08:39;3.53;;;2.65;;
45490;SDS011;31237;45.586;13.782;2023-07-29T08:11:04;4.40;;;2.53;;
45490;SDS011;31237;45.586;13.782;2023-07-29T08:13:30;5.32;;;3.17;;
45490;SDS011;31237;45.586;13.782;2023-07-29T08:15:56;4.25;;;2.72;;
45490;SDS011;31237;45.586;13.782;2023-07-29T08:18:22;4.78;;;2.83;;
45490;SDS011;31237;45.586;13.782;2023-07-29T08:20:54;5.68;;;3.75;;
45490;SDS011;31237;45.586;13.782;2023-07-29T08:23:23;7.78;;;2.83;;
45490;SDS011;31237;45.586;13.782;2023-07-29T08:25:56;7.72;;;3.13;;
45490;SDS011;31237;45.586;13.782;2023-07-29T08:28:26;4.93;;;3.38;;
45490;SDS011;31237;45.586;13.782;2023-07-29T08:30:56;3.80;;;3.10;;
45490;SDS011;31237;45.586;13.782;2023-07-29T08:33:22;7.15;;;3.20;;
45490;SDS011;31237;45.586;13.782;2023-07-29T08:35:48;5.95;;;4.10;;
45490;SDS011;31237;45.586;13.782;2023-07-29T08:38:13;5.20;;;2.85;;
45490;SDS011;31237;45.586;13.782;2023-07-29T08:40:45;4.95;;;3.60;;
45490;SDS011;31237;45.586;13.782;2023-07-29T08:43:20;5.65;;;3.45;;
45490;SDS011;31237;45.586;13.782;2023-07-29T08:45:59;5.28;;;3.17;;
45490;SDS011;31237;45.586;13.782;2023-07-29T08:48:43;5.13;;;3.53;;
45490;SDS011;31237;45.586;13.782;2023-07-29T08:51:10;6.47;;;2.92;;
45490;SDS011;31237;45.586;13.782;2023-07-29T08:53:36;7.13;;;3.25;;
45490;SDS011;31237;45.586;13.782;2023-07-29T08:56:03;6.78;;;3.63;;
45490;SDS011;31237;45.586;13.782;2023-07-29T08:58:30;3.67;;;3.20;;
45490;SDS011;31237;45.586;13.782;2023-07-29T09:00:58;3.60;;;3.30;;
45490;SDS011;31237;45.586;13.782;2023-07-29T09:03:23;5.03;;;2.95;;
45490;SDS011;31237;45.586;13.782;2023-07-29T09:05:49;3.55;;;2.50;;
45490;SDS011;31237;45.586;13.782;2023-07-29T09:08:16;4.28;;;2.97;;
45490;SDS011;31237;45.586;13.782;2023-07-29T09:10:42;3.85;;;2.83;;
45490;SDS011;31237;45.586;13.782;2023-07-29T09:13:08;5.57;;;2.95;;
45490;SDS011;31237;45.586;13.782;2023-07-29T09:15:34;4.53;;;2.63;;
45490;SDS011;31237;45.586;13.782;2023-07-29T09:20:53;5.90;;;4.35;;
45490;SDS011;31237;45.586;13.782;2023-07-29T09:23:19;5.43;;;4.55;;
45490;SDS011;31237;45.586;13.782;2023-07-29T09:25:48;10.15;;;6.47;;
45490;SDS011;31237;45.586;13.782;2023-07-29T09:28:14;5.72;;;5.22;;
45490;SDS011;31237;45.586;13.782;2023-07-29T09:30:41;5.30;;;4.78;;
45490;SDS011;31237;45.586;13.782;2023-07-29T09:33:09;7.63;;;6.90;;
45490;SDS011;31237;45.586;13.782;2023-07-29T09:35:35;8.98;;;4.93;;
45490;SDS011;31237;45.586;13.782;2023-07-29T09:38:05;6.50;;;5.90;;
45490;SDS011;31237;45.586;13.782;2023-07-29T09:40:38;5.38;;;3.63;;
45490;SDS011;31237;45.586;13.782;2023-07-29T09:43:04;3.47;;;2.80;;
45490;SDS011;31237;45.586;13.782;2023-07-29T09:45:33;6.32;;;3.20;;
45490;SDS011;31237;45.586;13.782;2023-07-29T09:48:02;4.47;;;3.92;;
45490;SDS011;31237;45.586;13.782;2023-07-29T09:50:35;4.45;;;3.38;;
45490;SDS011;31237;45.586;13.782;2023-07-29T09:53:01;4.28;;;2.55;;
45490;SDS011;31237;45.586;13.782;2023-07-29T09:55:28;4.70;;;3.13;;
45490;SDS011;31237;45.586;13.782;2023-07-29T09:57:58;5.00;;;3.53;;
45490;SDS011;31237;45.586;13.782;2023-07-29T10:00:27;4.70;;;3.23;;
45490;SDS011;31237;45.586;13.782;2023-07-29T10:02:53;7.20;;;3.17;;
45490;SDS011;31237;45.586;13.782;2023-07-29T10:05:21;4.78;;;3.35;;
45490;SDS011;31237;45.586;13.782;2023-07-29T10:07:48;4.18;;;3.30;;
45490;SDS011;31237;45.586;13.782;2023-07-29T10:10:15;4.90;;;4.15;;
45490;SDS011;31237;45.586;13.782;2023-07-29T10:12:41;5.40;;;3.05;;
45490;SDS011;31237;45.586;13.782;2023-07-29T10:15:08;5.72;;;5.10;;
45490;SDS011;31237;45.586;13.782;2023-07-29T10:17:35;6.65;;;4.65;;
45490;SDS011;31237;45.586;13.782;2023-07-29T10:20:03;4.57;;;4.18;;
45490;SDS011;31237;45.586;13.782;2023-07-29T10:22:35;5.63;;;5.13;;
45490;SDS011;31237;45.586;13.782;2023-07-29T10:27:48;4.85;;;3.72;;
45490;SDS011;31237;45.586;13.782;2023-07-29T10:30:32;5.10;;;3.60;;
45490;SDS011;31237;45.586;13.782;2023-07-29T10:32:59;4.15;;;3.75;;
45490;SDS011;31237;45.586;13.782;2023-07-29T10:35:27;6.20;;;4.63;;
45490;SDS011;31237;45.586;13.782;2023-07-29T10:37:53;5.55;;;3.97;;
45490;SDS011;31237;45.586;13.782;2023-07-29T10:40:20;4.88;;;4.30;;
45490;SDS011;31237;45.586;13.782;2023-07-29T10:43:01;5.53;;;4.07;;
45490;SDS011;31237;45.586;13.782;2023-07-29T10:45:41;7.55;;;4.32;;
45490;SDS011;31237;45.586;13.782;2023-07-29T10:48:10;5.93;;;3.63;;
45490;SDS011;31237;45.586;13.782;2023-07-29T10:50:37;6.22;;;3.72;;
45490;SDS011;31237;45.586;13.782;2023-07-29T10:53:03;4.93;;;3.35;;
45490;SDS011;31237;45.586;13.782;2023-07-29T10:55:33;5.10;;;3.35;;
45490;SDS011;31237;45.586;13.782;2023-07-29T10:58:23;4.25;;;3.85;;
45490;SDS011;31237;45.586;13.782;2023-07-29T11:00:47;4.57;;;4.00;;
45490;SDS011;31237;45.586;13.782;2023-07-29T11:03:14;5.38;;;3.17;;
45490;SDS011;31237;45.586;13.782;2023-07-29T11:05:50;4.25;;;2.70;;
45490;SDS011;31237;45.586;13.782;2023-07-29T11:08:29;5.65;;;3.40;;
45490;SDS011;31237;45.586;13.782;2023-07-29T11:11:08;5.18;;;3.25;;
45490;SDS011;31237;45.586;13.782;2023-07-29T11:13:37;4.97;;;3.30;;
45490;SDS011;31237;45.586;13.782;2023-07-29T11:16:04;5.93;;;3.80;;
45490;SDS011;31237;45.586;13.782;2023-07-29T11:18:31;6.60;;;5.07;;
45490;SDS011;31237;45.586;13.782;2023-07-29T11:20:59;7.60;;;6.93;;
45490;SDS011;31237;45.586;13.782;2023-07-29T11:23:29;6.20;;;4.32;;
45490;SDS011;31237;45.586;13.782;2023-07-29T11:26:00;4.90;;;4.15;;
45490;SDS011;31237;45.586;13.782;2023-07-29T11:28:26;4.88;;;4.38;;
45490;SDS011;31237;45.586;13.782;2023-07-29T11:30:53;7.45;;;4.72;;
45490;SDS011;31237;45.586;13.782;2023-07-29T11:33:23;4.72;;;3.88;;
45490;SDS011;31237;45.586;13.782;2023-07-29T11:35:51;4.05;;;3.65;;
45490;SDS011;31237;45.586;13.782;2023-07-29T11:38:18;5.85;;;3.63;;
45490;SDS011;31237;45.586;13.782;2023-07-29T11:41:00;5.32;;;3.20;;
45490;SDS011;31237;45.586;13.782;2023-07-29T11:43:34;6.72;;;4.68;;
45490;SDS011;31237;45.586;13.782;2023-07-29T11:46:01;4.28;;;3.88;;
45490;SDS011;31237;45.586;13.782;2023-07-29T11:48:27;5.18;;;3.20;;
45490;SDS011;31237;45.586;13.782;2023-07-29T11:50:54;3.65;;;2.88;;
45490;SDS011;31237;45.586;13.782;2023-07-29T11:53:20;4.55;;;2.90;;
45490;SDS011;31237;45.586;13.782;2023-07-29T11:55:49;3.85;;;2.53;;
45490;SDS011;31237;45.586;13.782;2023-07-29T11:58:18;5.53;;;2.80;;
45490;SDS011;31237;45.586;13.782;2023-07-29T12:00:46;3.72;;;3.13;;
45490;SDS011;31237;45.586;13.782;2023-07-29T12:03:11;4.25;;;3.20;;
45490;SDS011;31237;45.586;13.782;2023-07-29T12:05:38;4.82;;;2.80;;
45490;SDS011;31237;45.586;13.782;2023-07-29T12:08:04;5.90;;;2.60;;
45490;SDS011;31237;45.586;13.782;2023-07-29T12:10:30;4.38;;;2.50;;
45490;SDS011;31237;45.586;13.782;2023-07-29T12:12:56;4.25;;;2.33;;
45490;SDS011;31237;45.586;13.782;2023-07-29T12:15:23;5.15;;;2.67;;
45490;SDS011;31237;45.586;13.782;2023-07-29T12:17:53;3.70;;;2.50;;
45490;SDS011;31237;45.586;13.782;2023-07-29T12:20:21;6.28;;;2.65;;
45490;SDS011;31237;45.586;13.782;2023-07-29T12:22:58;4.78;;;2.00;;
45490;SDS011;31237;45.586;13.782;2023-07-29T12:25:30;4.60;;;2.65;;
45490;SDS011;31237;45.586;13.782;2023-07-29T12:27:55;5.07;;;2.50;;
45490;SDS011;31237;45.586;13.782;2023-07-29T12:30:22;4.25;;;2.30;;
45490;SDS011;31237;45.586;13.782;2023-07-29T12:32:49;4.95;;;2.10;;
45490;SDS011;31237;45.586;13.782;2023-07-29T12:35:15;4.20;;;2.35;;
45490;SDS011;31237;45.586;13.782;2023-07-29T12:37:41;3.53;;;2.35;;
45490;SDS011;31237;45.586;13.782;2023-07-29T12:40:09;4.07;;;2.85;;
45490;SDS011;31237;45.586;13.782;2023-07-29T12:42:50;5.67;;;2.47;;
45490;SDS011;31237;45.586;13.782;2023-07-29T12:45:17;4.18;;;2.28;;
45490;SDS011;31237;45.586;13.782;2023-07-29T12:47:43;6.65;;;2.42;;
45490;SDS011;31237;45.586;13.782;2023-07-29T12:50:09;4.10;;;2.63;;
45490;SDS011;31237;45.586;13.782;2023-07-29T12:52:34;3.97;;;2.55;;
45490;SDS011;31237;45.586;13.782;2023-07-29T12:55:00;4.03;;;2.60;;
45490;SDS011;31237;45.586;13.782;2023-07-29T12:57:26;3.53;;;2.40;;
45490;SDS011;31237;45.586;13.782;2023-07-29T12:59:52;3.90;;;2.40;;
45490;SDS011;31237;45.586;13.782;2023-07-29T13:02:17;5.57;;;3.10;;
45490;SDS011;31237;45.586;13.782;2023-07-29T13:04:43;3.50;;;2.70;;
45490;SDS011;31237;45.586;13.782;2023-07-29T13:07:08;4.60;;;3.00;;
45490;SDS011;31237;45.586;13.782;2023-07-29T13:09:34;4.10;;;2.85;;
45490;SDS011;31237;45.586;13.782;2023-07-29T13:12:00;5.28;;;2.75;;
45490;SDS011;31237;45.586;13.782;2023-07-29T13:14:26;4.43;;;3.03;;
45490;SDS011;31237;45.586;13.782;2023-07-29T13:16:51;6.90;;;3.13;;
45490;SDS011;31237;45.586;13.782;2023-07-29T13:19:20;6.57;;;3.42;;
45490;SDS011;31237;45.586;13.782;2023-07-29T13:21:45;4.20;;;2.55;;
45490;SDS011;31237;45.586;13.782;2023-07-29T13:24:11;6.25;;;3.15;;
45490;SDS011;31237;45.586;13.782;2023-07-29T13:26:37;4.13;;;2.92;;
45490;SDS011;31237;45.586;13.782;2023-07-29T13:29:03;6.90;;;3.05;;
45490;SDS011;31237;45.586;13.782;2023-07-29T13:31:29;4.72;;;3.53;;
45490;SDS011;31237;45.586;13.782;2023-07-29T13:33:55;6.13;;;3.42;;
45490;SDS011;31237;45.586;13.782;2023-07-29T13:36:22;4.32;;;2.97;;
45490;SDS011;31237;45.586;13.782;2023-07-29T13:38:48;5.15;;;3.30;;
45490;SDS011;31237;45.586;13.782;2023-07-29T13:41:13;5.15;;;3.75;;
45490;SDS011;31237;45.586;13.782;2023-07-29T13:43:39;4.90;;;3.22;;
45490;SDS011;31237;45.586;13.782;2023-07-29T13:46:05;4.90;;;2.70;;
45490;SDS011;31237;45.586;13.782;2023-07-29T13:48:30;4.40;;;2.83;;
45490;SDS011;31237;45.586;13.782;2023-07-29T13:50:58;4.10;;;2.80;;
45490;SDS011;31237;45.586;13.782;2023-07-29T13:53:23;4.72;;;3.22;;
45490;SDS011;31237;45.586;13.782;2023-07-29T13:55:50;5.20;;;3.08;;
45490;SDS011;31237;45.586;13.782;2023-07-29T13:58:16;6.18;;;4.15;;
45490;SDS011;31237;45.586;13.782;2023-07-29T14:00:42;5.90;;;3.58;;
45490;SDS011;31237;45.586;13.782;2023-07-29T14:03:08;5.00;;;3.30;;
45490;SDS011;31237;45.586;13.782;2023-07-29T14:05:33;6.15;;;3.20;;
45490;SDS011;31237;45.586;13.782;2023-07-29T14:07:59;4.10;;;2.92;;
45490;SDS011;31237;45.586;13.782;2023-07-29T14:10:24;3.83;;;2.97;;
45490;SDS011;31237;45.586;13.782;2023-07-29T14:12:51;10.90;;;3.20;;
45490;SDS011;31237;45.586;13.782;2023-07-29T14:15:16;5.38;;;2.92;;
45490;SDS011;31237;45.586;13.782;2023-07-29T14:17:42;4.30;;;3.25;;
45490;SDS011;31237;45.586;13.782;2023-07-29T14:20:08;5.63;;;2.78;;
45490;SDS011;31237;45.586;13.782;2023-07-29T14:22:35;4.03;;;3.63;;
45490;SDS011;31237;45.586;13.782;2023-07-29T14:25:01;5.10;;;3.65;;
45490;SDS011;31237;45.586;13.782;2023-07-29T14:27:26;6.03;;;3.50;;
45490;SDS011;31237;45.586;13.782;2023-07-29T14:29:52;4.93;;;3.38;;
45490;SDS011;31237;45.586;13.782;2023-07-29T14:32:18;4.47;;;3.70;;
45490;SDS011;31237;45.586;13.782;2023-07-29T14:34:44;4.75;;;3.95;;
45490;SDS011;31237;45.586;13.782;2023-07-29T14:37:09;4.45;;;3.85;;
45490;SDS011;31237;45.586;13.782;2023-07-29T14:39:35;5.45;;;3.17;;
45490;SDS011;31237;45.586;13.782;2023-07-29T14:42:01;5.13;;;3.20;;